createdAt,value
2022-10-19T00:01:30.036Z,7.73
2022-10-19T00:03:57.560Z,6.40
2022-10-19T00:06:27.707Z,6.60
2022-10-19T00:08:55.552Z,6.97
2022-10-19T00:11:23.618Z,5.73
2022-10-19T00:13:51.128Z,6.10
2022-10-19T00:16:19.261Z,4.63
2022-10-19T00:18:47.023Z,4.83
2022-10-19T00:21:15.431Z,4.13
2022-10-19T00:23:44.373Z,4.53
2022-10-19T00:26:12.218Z,4.27
2022-10-19T00:28:39.766Z,4.03
2022-10-19T00:31:08.179Z,3.53
2022-10-19T00:33:35.599Z,3.37
2022-10-19T00:36:03.016Z,3.50
2022-10-19T00:38:30.493Z,3.50
2022-10-19T00:40:59.265Z,3.17
2022-10-19T00:43:28.011Z,2.60
2022-10-19T00:45:55.436Z,3.00
2022-10-19T00:48:26.020Z,2.70
2022-10-19T00:50:55.057Z,2.93
2022-10-19T00:53:22.860Z,3.27
2022-10-19T00:55:50.288Z,2.63
2022-10-19T00:58:19.073Z,3.13
2022-10-19T01:00:46.769Z,2.90
2022-10-19T01:03:14.742Z,2.70
2022-10-19T01:05:42.235Z,3.13
2022-10-19T01:08:09.779Z,2.80
2022-10-19T01:10:43.317Z,3.97
2022-10-19T01:13:15.859Z,3.60
2022-10-19T01:15:47.811Z,3.10
2022-10-19T01:18:20.412Z,4.00
2022-10-19T01:20:56.826Z,3.60
2022-10-19T01:23:35.842Z,3.17
2022-10-19T01:26:07.519Z,3.63
2022-10-19T01:28:45.910Z,4.47
2022-10-19T01:31:19.394Z,4.87
2022-10-19T01:33:48.419Z,4.67
2022-10-19T01:36:22.006Z,4.80
2022-10-19T01:38:53.683Z,5.43
2022-10-19T01:41:22.687Z,4.87
2022-10-19T01:43:54.112Z,5.90
2022-10-19T01:46:28.282Z,4.80
2022-10-19T01:48:57.892Z,5.30
2022-10-19T01:51:28.007Z,5.00
2022-10-19T01:53:57.452Z,6.13
2022-10-19T01:56:26.282Z,5.13
2022-10-19T01:58:55.067Z,8.03
2022-10-19T02:01:25.158Z,9.87
2022-10-19T02:03:53.127Z,12.77
2022-10-19T02:06:21.175Z,11.40
2022-10-19T02:08:49.511Z,11.57
2022-10-19T02:11:17.724Z,12.53
2022-10-19T02:13:46.014Z,11.37
2022-10-19T02:16:15.469Z,10.80
2022-10-19T02:18:46.565Z,11.70
2022-10-19T02:21:14.249Z,12.17
2022-10-19T02:23:41.695Z,10.80
2022-10-19T02:26:09.331Z,10.93
2022-10-19T02:28:37.162Z,11.63
2022-10-19T02:31:04.923Z,10.93
2022-10-19T02:33:32.898Z,11.20
2022-10-19T02:36:01.722Z,10.43
2022-10-19T02:38:29.358Z,10.37
2022-10-19T02:41:01.119Z,9.97
2022-10-19T02:43:29.540Z,9.27
2022-10-19T02:46:01.249Z,10.03
2022-10-19T02:48:30.662Z,9.10
2022-10-19T02:50:58.039Z,9.03
2022-10-19T02:53:26.799Z,8.87
2022-10-19T02:55:54.254Z,8.27
2022-10-19T02:58:21.749Z,9.10
2022-10-19T03:00:49.198Z,9.43
2022-10-19T03:03:16.680Z,8.77
2022-10-19T03:05:44.111Z,8.83
2022-10-19T03:08:11.542Z,8.53
2022-10-19T03:10:40.289Z,8.90
2022-10-19T03:13:07.708Z,9.20
2022-10-19T03:15:35.122Z,9.20
2022-10-19T03:18:02.569Z,9.07
2022-10-19T03:20:29.930Z,8.83
2022-10-19T03:22:57.362Z,9.43
2022-10-19T03:25:24.777Z,10.03
2022-10-19T03:27:53.505Z,9.03
2022-10-19T03:30:20.914Z,10.03
2022-10-19T03:32:48.390Z,9.97
2022-10-19T03:35:15.794Z,10.50
2022-10-19T03:37:43.161Z,10.10
2022-10-19T03:40:11.110Z,10.40
2022-10-19T03:42:38.537Z,10.83
2022-10-19T03:45:08.172Z,10.10
2022-10-19T03:47:35.921Z,11.60
2022-10-19T03:50:05.695Z,11.70
2022-10-19T03:52:33.079Z,11.23
2022-10-19T03:55:00.475Z,11.33
2022-10-19T03:57:27.853Z,11.83
2022-10-19T03:59:55.234Z,10.90
2022-10-19T04:02:23.993Z,10.63
2022-10-19T04:04:51.414Z,11.60
2022-10-19T04:07:18.830Z,11.03
2022-10-19T04:09:46.268Z,10.77
2022-10-19T04:12:13.646Z,11.30
2022-10-19T04:14:56.206Z,10.93
2022-10-19T04:17:26.526Z,11.33
2022-10-19T04:19:53.965Z,11.30
2022-10-19T04:22:21.320Z,9.97
2022-10-19T04:24:48.762Z,12.17
2022-10-19T04:27:16.153Z,13.50
2022-10-19T04:29:43.607Z,15.07
2022-10-19T04:32:10.988Z,15.90
2022-10-19T04:34:40.170Z,16.17
2022-10-19T04:37:07.719Z,15.07
2022-10-19T04:39:39.240Z,12.10
2022-10-19T04:42:06.681Z,9.37
2022-10-19T04:44:34.065Z,9.03
2022-10-19T04:47:01.517Z,9.07
2022-10-19T04:49:28.938Z,9.23
2022-10-19T04:51:57.666Z,9.33
2022-10-19T04:54:25.288Z,7.83
2022-10-19T04:56:53.779Z,9.10
2022-10-19T04:59:21.189Z,10.37
2022-10-19T05:01:48.594Z,9.47
2022-10-19T05:04:16.016Z,10.77
2022-10-19T05:06:43.462Z,12.80
2022-10-19T05:09:12.426Z,10.53
2022-10-19T05:11:39.807Z,11.83
2022-10-19T05:14:07.325Z,10.53
2022-10-19T05:16:34.809Z,10.03
2022-10-19T05:19:02.392Z,9.17
2022-10-19T05:21:30.124Z,13.13
2022-10-19T05:23:58.434Z,8.90
2022-10-19T05:26:27.975Z,7.40
2022-10-19T05:28:56.898Z,7.40
2022-10-19T05:31:25.717Z,8.33
2022-10-19T05:33:53.325Z,6.03
2022-10-19T05:36:22.651Z,6.23
2022-10-19T05:38:52.655Z,9.40
2022-10-19T05:41:20.409Z,10.77
2022-10-19T05:43:53.505Z,8.67
2022-10-19T05:46:21.091Z,9.63
2022-10-19T05:48:48.979Z,7.97
2022-10-19T05:51:17.633Z,6.20
2022-10-19T05:53:45.969Z,5.07
2022-10-19T05:56:16.351Z,4.93
2022-10-19T05:58:43.972Z,5.43
2022-10-19T06:01:12.927Z,5.00
2022-10-19T06:03:40.671Z,5.60
2022-10-19T06:06:08.864Z,4.50
2022-10-19T06:08:36.737Z,4.43
2022-10-19T06:11:08.429Z,4.70
2022-10-19T06:13:35.862Z,4.43
2022-10-19T06:16:03.437Z,4.63
2022-10-19T06:18:32.227Z,5.20
2022-10-19T06:21:02.431Z,4.67
2022-10-19T06:23:29.893Z,4.90
2022-10-19T06:25:57.333Z,3.97
2022-10-19T06:28:24.764Z,4.30
2022-10-19T06:30:52.204Z,4.60
2022-10-19T06:33:19.722Z,3.73
2022-10-19T06:35:48.617Z,4.00
2022-10-19T06:38:16.010Z,3.60
2022-10-19T06:40:43.416Z,3.07
2022-10-19T06:43:10.819Z,3.67
2022-10-19T06:45:38.435Z,2.90
2022-10-19T06:48:07.704Z,2.67
2022-10-19T06:50:35.443Z,2.90
2022-10-19T06:53:04.213Z,3.20
2022-10-19T06:55:31.643Z,3.30
2022-10-19T06:58:01.627Z,3.30
2022-10-19T07:00:29.200Z,3.83
2022-10-19T07:02:56.813Z,3.80
2022-10-19T07:05:24.268Z,3.77
2022-10-19T07:07:51.812Z,3.03
2022-10-19T07:10:20.687Z,3.83
2022-10-19T07:12:48.269Z,4.40
2022-10-19T07:15:15.707Z,3.67
2022-10-19T07:17:43.086Z,3.33
2022-10-19T07:20:11.620Z,2.47
2022-10-19T07:22:39.038Z,2.43
2022-10-19T07:25:06.763Z,2.70
2022-10-19T07:27:40.039Z,3.07
2022-10-19T07:30:08.220Z,2.73
2022-10-19T07:32:35.659Z,3.00
2022-10-19T07:35:03.039Z,3.27
2022-10-19T07:37:30.423Z,3.23
2022-10-19T07:39:57.863Z,2.90
2022-10-19T07:42:25.440Z,3.67
2022-10-19T07:44:54.210Z,4.07
2022-10-19T07:47:21.603Z,3.30
2022-10-19T07:49:49.012Z,3.80
2022-10-19T07:52:16.822Z,3.93
2022-10-19T07:54:44.236Z,4.03
2022-10-19T07:57:12.514Z,3.57
2022-10-19T07:59:39.864Z,3.50
2022-10-19T08:02:14.419Z,3.83
2022-10-19T08:05:00.323Z,3.60
2022-10-19T08:07:29.295Z,3.10
2022-10-19T08:09:56.761Z,3.20
2022-10-19T08:12:24.286Z,3.53
2022-10-19T08:14:51.688Z,3.70
2022-10-19T08:17:20.482Z,2.67
2022-10-19T08:19:47.918Z,3.67
2022-10-19T08:22:15.322Z,2.87
2022-10-19T08:24:42.837Z,3.57
2022-10-19T08:27:10.397Z,2.70
2022-10-19T08:29:37.807Z,2.67
2022-10-19T08:32:05.352Z,2.40
2022-10-19T08:34:34.240Z,2.40
2022-10-19T08:37:10.091Z,3.53
2022-10-19T08:39:47.459Z,3.80
2022-10-19T08:42:17.202Z,4.37
2022-10-19T08:45:02.440Z,4.03
2022-10-19T08:47:37.936Z,3.40
2022-10-19T08:50:15.564Z,3.30
2022-10-19T08:52:43.279Z,3.13
2022-10-19T08:55:18.028Z,2.53
2022-10-19T08:57:50.748Z,3.40
2022-10-19T09:00:21.888Z,3.53
2022-10-19T09:02:54.781Z,3.33
2022-10-19T09:05:29.997Z,3.60
2022-10-19T09:07:57.457Z,3.53
2022-10-19T09:10:26.413Z,3.73
2022-10-19T09:12:58.702Z,3.23
2022-10-19T09:15:27.813Z,4.17
2022-10-19T09:17:55.668Z,3.30
2022-10-19T09:20:27.630Z,4.20
2022-10-19T09:22:59.966Z,5.17
2022-10-19T09:25:29.245Z,4.73
2022-10-19T09:28:03.149Z,4.27
2022-10-19T09:30:31.290Z,4.53
2022-10-19T09:33:00.328Z,5.17
2022-10-19T09:35:30.269Z,4.87
2022-10-19T09:37:58.162Z,5.83
2022-10-19T09:40:26.916Z,5.37
2022-10-19T09:42:58.862Z,5.07
2022-10-19T09:45:32.743Z,4.33
2022-10-19T09:48:10.034Z,5.07
2022-10-19T09:50:43.850Z,5.40
2022-10-19T09:53:22.048Z,5.60
2022-10-19T09:55:52.398Z,5.33
2022-10-19T09:58:20.590Z,5.47
2022-10-19T10:00:50.497Z,5.63
2022-10-19T10:03:28.510Z,6.00
2022-10-19T10:05:58.650Z,6.17
2022-10-19T10:08:27.990Z,7.00
2022-10-19T10:10:58.460Z,7.03
2022-10-19T10:13:27.619Z,7.20
2022-10-19T10:15:57.414Z,7.63
2022-10-19T10:18:25.761Z,7.43
2022-10-19T10:21:06.901Z,7.40
2022-10-19T10:23:36.523Z,6.97
2022-10-19T10:26:05.016Z,7.33
2022-10-19T10:28:32.846Z,7.60
2022-10-19T10:31:01.719Z,7.17
2022-10-19T10:33:44.385Z,6.93
2022-10-19T10:36:14.272Z,7.10
2022-10-19T10:38:43.852Z,7.27
2022-10-19T10:41:13.402Z,8.07
2022-10-19T10:46:26.586Z,8.00
2022-10-19T10:48:56.050Z,7.43
2022-10-19T10:51:29.891Z,8.00
2022-10-19T10:54:10.036Z,7.23
2022-10-19T10:56:40.660Z,8.47
2022-10-19T10:59:13.763Z,8.70
2022-10-19T11:01:42.114Z,8.73
2022-10-19T11:04:12.203Z,8.33
2022-10-19T11:06:44.623Z,9.00
2022-10-19T11:09:16.017Z,9.20
2022-10-19T11:11:45.814Z,9.10
2022-10-19T11:14:23.475Z,8.33
2022-10-19T11:16:53.395Z,8.53
2022-10-19T11:19:23.428Z,8.13
2022-10-19T11:21:57.247Z,8.27
2022-10-19T11:27:08.729Z,8.27
2022-10-19T11:29:44.213Z,7.47
2022-10-19T11:32:16.843Z,6.90
2022-10-19T11:34:50.893Z,6.47
2022-10-19T11:37:24.119Z,7.23
2022-10-19T11:39:59.268Z,6.97
2022-10-19T11:42:32.576Z,6.30
2022-10-19T11:45:05.476Z,7.13
2022-10-19T11:47:40.014Z,7.27
2022-10-19T11:50:12.275Z,7.27
2022-10-19T11:52:46.501Z,6.63
2022-10-19T11:55:20.630Z,7.13
2022-10-19T11:57:52.554Z,6.27
2022-10-19T12:00:38.235Z,6.47
2022-10-19T12:03:14.874Z,6.67
2022-10-19T12:05:46.918Z,5.23
2022-10-19T12:08:31.046Z,5.63
2022-10-19T12:11:02.183Z,6.03
2022-10-19T12:13:32.644Z,5.97
2022-10-19T12:16:00.604Z,6.07
2022-10-19T12:18:33.178Z,5.47
2022-10-19T12:21:03.256Z,5.60
2022-10-19T12:23:34.031Z,5.53
2022-10-19T12:26:03.133Z,5.40
2022-10-19T12:28:32.060Z,5.20
2022-10-19T12:31:00.526Z,6.00
2022-10-19T12:33:30.462Z,5.40
2022-10-19T12:36:06.603Z,4.53
2022-10-19T12:38:45.139Z,5.10
2022-10-19T12:41:19.086Z,5.00
2022-10-19T12:43:57.192Z,4.10
2022-10-19T12:46:31.208Z,4.10
2022-10-19T12:49:16.281Z,4.57
2022-10-19T12:51:47.253Z,5.05
2022-10-19T12:54:16.274Z,4.40
2022-10-19T12:56:51.555Z,3.80
2022-10-19T12:59:24.049Z,4.43
2022-10-19T13:01:51.949Z,5.13
2022-10-19T13:04:21.530Z,3.78
2022-10-19T13:06:50.446Z,3.75
2022-10-19T13:09:24.933Z,3.70
2022-10-19T13:12:10.850Z,3.30
2022-10-19T13:14:45.837Z,3.42
2022-10-19T13:17:34.970Z,3.17
2022-10-19T13:20:21.082Z,3.55
2022-10-19T13:22:49.289Z,3.60
2022-10-19T13:25:26.968Z,3.03
2022-10-19T13:27:55.887Z,3.63
2022-10-19T13:30:42.314Z,3.80
2022-10-19T13:33:28.625Z,3.75
2022-10-19T13:36:08.141Z,3.47
2022-10-19T13:41:15.170Z,3.50
2022-10-19T13:43:52.141Z,4.50
2022-10-19T13:46:21.226Z,3.63
2022-10-19T13:48:58.140Z,3.30
2022-10-19T13:51:30.365Z,3.27
2022-10-19T13:54:03.018Z,3.47
2022-10-19T13:59:32.442Z,3.53
2022-10-19T14:02:11.216Z,3.20
2022-10-19T14:04:42.940Z,4.40
2022-10-19T14:07:14.564Z,3.73
2022-10-19T14:10:01.290Z,3.53
2022-10-19T14:12:31.381Z,3.10
2022-10-19T14:14:59.730Z,3.03
2022-10-19T14:17:30.086Z,3.00
2022-10-19T14:19:59.176Z,2.33
2022-10-19T14:22:29.913Z,3.03
2022-10-19T14:25:01.266Z,2.67
2022-10-19T14:27:30.990Z,2.60
2022-10-19T14:29:58.725Z,2.80
2022-10-19T14:32:27.865Z,2.63
2022-10-19T14:34:58.521Z,2.50
2022-10-19T14:37:27.646Z,2.33
2022-10-19T14:40:00.104Z,2.63
2022-10-19T14:42:37.980Z,2.57
2022-10-19T14:45:07.487Z,2.80
2022-10-19T14:47:35.002Z,2.90
2022-10-19T14:50:03.542Z,3.00
2022-10-19T14:52:33.799Z,3.00
2022-10-19T14:55:02.843Z,2.77
2022-10-19T14:57:32.916Z,3.70
2022-10-19T15:00:02.825Z,2.73
2022-10-19T15:02:31.583Z,2.97
2022-10-19T15:05:00.686Z,3.23
2022-10-19T15:07:31.342Z,4.13
2022-10-19T15:10:00.465Z,4.30
2022-10-19T15:12:29.479Z,3.27
2022-10-19T15:14:58.229Z,3.10
2022-10-19T15:17:28.915Z,3.37
2022-10-19T15:19:58.449Z,2.90
2022-10-19T15:22:38.414Z,3.40
2022-10-19T15:25:24.055Z,3.70
2022-10-19T15:27:53.594Z,3.90
2022-10-19T15:30:25.391Z,4.20
2022-10-19T15:32:57.271Z,3.63
2022-10-19T15:35:30.523Z,3.73
2022-10-19T15:38:01.588Z,3.57
2022-10-19T15:40:32.345Z,3.50
2022-10-19T15:42:59.992Z,3.57
2022-10-19T15:45:34.511Z,3.43
2022-10-19T15:48:22.053Z,3.57
2022-10-19T15:50:51.964Z,3.57
2022-10-19T15:53:20.063Z,3.60
2022-10-19T15:55:47.527Z,3.77
2022-10-19T15:58:15.367Z,3.50
2022-10-19T16:00:43.234Z,3.50
2022-10-19T16:03:10.843Z,3.37
2022-10-19T16:05:38.630Z,3.70
2022-10-19T16:08:10.171Z,4.10
2022-10-19T16:10:39.957Z,3.50
2022-10-19T16:13:07.504Z,3.93
2022-10-19T16:15:35.042Z,3.73
2022-10-19T16:18:02.637Z,4.13
2022-10-19T16:20:30.479Z,4.43
2022-10-19T16:22:58.113Z,3.97
2022-10-19T16:25:28.823Z,3.60
2022-10-19T16:27:56.421Z,4.50
2022-10-19T16:30:24.385Z,5.20
2022-10-19T16:32:52.001Z,5.83
2022-10-19T16:35:19.553Z,6.47
2022-10-19T16:37:47.100Z,5.03
2022-10-19T16:40:14.786Z,5.20
2022-10-19T16:42:43.726Z,4.80
2022-10-19T16:45:11.926Z,4.77
2022-10-19T16:47:39.551Z,3.83
2022-10-19T16:50:07.391Z,3.60
2022-10-19T16:52:35.241Z,4.43
2022-10-19T16:55:02.978Z,4.33
2022-10-19T16:57:30.618Z,5.27
2022-10-19T16:59:59.549Z,4.50
2022-10-19T17:02:27.188Z,4.80
2022-10-19T17:04:54.741Z,4.83
2022-10-19T17:07:22.331Z,5.03
2022-10-19T17:09:54.489Z,4.63
2022-10-19T17:12:22.476Z,4.27
2022-10-19T17:14:51.309Z,5.27
2022-10-19T17:17:20.948Z,5.40
2022-10-19T17:19:48.835Z,5.03
2022-10-19T17:22:16.742Z,5.83
2022-10-19T17:24:46.315Z,5.73
2022-10-19T17:27:14.204Z,6.70
2022-10-19T17:29:41.822Z,5.93
2022-10-19T17:32:09.558Z,6.63
2022-10-19T17:34:38.509Z,8.83
2022-10-19T17:37:06.379Z,6.30
2022-10-19T17:39:33.998Z,5.97
2022-10-19T17:42:03.288Z,6.97
2022-10-19T17:44:31.555Z,6.60
2022-10-19T17:46:59.329Z,6.40
2022-10-19T17:49:26.912Z,6.13
2022-10-19T17:51:55.867Z,6.83
2022-10-19T17:54:23.471Z,7.30
2022-10-19T17:56:51.055Z,6.63
2022-10-19T17:59:29.922Z,8.03
2022-10-19T18:02:02.616Z,7.17
2022-10-19T18:04:30.319Z,7.40
2022-10-19T18:06:59.325Z,7.60
2022-10-19T18:09:26.916Z,7.77
2022-10-19T18:11:54.474Z,8.30
2022-10-19T18:14:22.014Z,7.37
2022-10-19T18:16:50.330Z,8.93
2022-10-19T18:19:17.837Z,8.93
2022-10-19T18:21:46.364Z,7.90
2022-10-19T18:24:19.517Z,8.17
2022-10-19T18:26:47.246Z,8.67
2022-10-19T18:29:18.302Z,8.87
2022-10-19T18:31:49.114Z,8.57
2022-10-19T18:34:16.947Z,7.97
2022-10-19T18:36:44.904Z,8.37
2022-10-19T18:39:13.242Z,8.43
2022-10-19T18:41:42.221Z,7.50
2022-10-19T18:44:12.471Z,8.20
2022-10-19T18:46:40.540Z,8.73
2022-10-19T18:49:09.357Z,8.43
2022-10-19T18:51:37.473Z,7.77
2022-10-19T18:54:05.358Z,7.90
2022-10-19T18:56:33.357Z,7.10
2022-10-19T18:59:02.368Z,7.87
2022-10-19T19:01:30.842Z,8.13
2022-10-19T19:04:00.680Z,7.07
2022-10-19T19:06:29.959Z,7.10
2022-10-19T19:08:58.149Z,7.60
2022-10-19T19:11:26.933Z,7.50
2022-10-19T19:13:55.530Z,7.47
2022-10-19T19:16:25.083Z,6.83
2022-10-19T19:18:52.709Z,6.90
2022-10-19T19:21:21.208Z,8.00
2022-10-19T19:23:49.427Z,7.07
2022-10-19T19:26:17.363Z,6.87
2022-10-19T19:28:47.637Z,6.67
2022-10-19T19:31:18.506Z,6.63
2022-10-19T19:33:48.338Z,6.67
2022-10-19T19:36:17.253Z,6.17
2022-10-19T19:38:45.159Z,7.90
2022-10-19T19:41:13.943Z,8.90
2022-10-19T19:43:42.488Z,7.50
2022-10-19T19:46:12.806Z,7.47
2022-10-19T19:48:41.233Z,6.20
2022-10-19T19:51:10.468Z,7.40
2022-10-19T19:53:39.096Z,5.97
2022-10-19T19:56:07.132Z,7.13
2022-10-19T19:58:34.839Z,6.87
2022-10-19T20:01:12.153Z,7.07
2022-10-19T20:03:41.244Z,6.93
2022-10-19T20:06:10.516Z,6.83
2022-10-19T20:08:38.268Z,6.70
2022-10-19T20:11:07.498Z,6.30
2022-10-19T20:13:35.507Z,6.90
2022-10-19T20:16:07.648Z,6.50
2022-10-19T20:18:35.266Z,5.83
2022-10-19T20:21:03.223Z,6.50
2022-10-19T20:23:32.556Z,6.30
2022-10-19T20:26:00.249Z,6.27
2022-10-19T20:28:28.223Z,7.30
2022-10-19T20:31:02.386Z,6.70
2022-10-19T20:33:30.458Z,7.37
2022-10-19T20:35:58.064Z,7.47
2022-10-19T20:38:27.609Z,7.03
2022-10-19T20:40:56.601Z,6.90
2022-10-19T20:43:24.182Z,6.83
2022-10-19T20:45:51.732Z,7.10
2022-10-19T20:48:19.309Z,7.37
2022-10-19T20:50:46.819Z,6.73
2022-10-19T20:53:14.404Z,6.60
2022-10-19T20:55:41.989Z,6.97
2022-10-19T20:58:10.900Z,7.13
2022-10-19T21:00:38.481Z,5.87
2022-10-19T21:03:08.422Z,6.83
2022-10-19T21:05:38.582Z,7.40
2022-10-19T21:10:35.783Z,6.53
2022-10-19T21:13:03.359Z,7.47
2022-10-19T21:15:32.244Z,7.47
2022-10-19T21:17:59.735Z,7.03
2022-10-19T21:20:27.307Z,7.00
2022-10-19T21:22:54.830Z,6.37
2022-10-19T21:25:22.436Z,7.00
2022-10-19T21:27:52.455Z,7.20
2022-10-19T21:30:19.898Z,7.37
2022-10-19T21:32:49.816Z,7.07
2022-10-19T21:35:17.336Z,7.70
2022-10-19T21:37:44.850Z,6.93
2022-10-19T21:40:12.479Z,7.27
2022-10-19T21:42:40.041Z,7.53
2022-10-19T21:45:28.749Z,7.50
2022-10-19T21:47:57.060Z,6.83
2022-10-19T21:50:24.549Z,7.37
2022-10-19T21:52:52.029Z,7.07
2022-10-19T21:55:19.558Z,7.13
2022-10-19T21:57:47.113Z,6.27
2022-10-19T22:00:14.983Z,7.10
2022-10-19T22:02:42.440Z,6.60
2022-10-19T22:05:11.371Z,6.83
2022-10-19T22:07:38.830Z,6.70
2022-10-19T22:10:06.620Z,7.10
2022-10-19T22:12:34.435Z,6.70
2022-10-19T22:15:02.209Z,7.03
2022-10-19T22:17:29.773Z,7.87
2022-10-19T22:19:57.674Z,7.47
2022-10-19T22:22:26.506Z,7.67
2022-10-19T22:24:54.487Z,7.50
2022-10-19T22:27:21.961Z,7.10
2022-10-19T22:29:49.457Z,7.00
2022-10-19T22:32:17.010Z,6.50
2022-10-19T22:34:44.501Z,6.67
2022-10-19T22:37:11.959Z,6.37
2022-10-19T22:42:09.609Z,7.70
2022-10-19T22:44:37.272Z,7.20
2022-10-19T22:47:05.482Z,6.60
2022-10-19T22:49:33.820Z,7.10
2022-10-19T22:52:01.356Z,7.80
2022-10-19T22:54:28.865Z,6.87
2022-10-19T22:56:57.974Z,6.53
2022-10-19T22:59:25.521Z,6.73
2022-10-19T23:01:53.074Z,7.00
2022-10-19T23:04:21.186Z,6.83
2022-10-19T23:06:48.741Z,6.67
2022-10-19T23:09:16.268Z,6.73
2022-10-19T23:11:43.734Z,6.63
2022-10-19T23:14:12.618Z,6.10
2022-10-19T23:16:40.120Z,6.67
2022-10-19T23:19:07.677Z,6.40
2022-10-19T23:21:35.225Z,6.17
2022-10-19T23:24:02.714Z,5.87
2022-10-19T23:26:30.183Z,5.67
2022-10-19T23:28:57.687Z,6.03
2022-10-19T23:31:29.932Z,6.57
2022-10-19T23:33:57.411Z,5.77
2022-10-19T23:36:26.773Z,5.63
2022-10-19T23:38:54.903Z,5.73
2022-10-19T23:41:22.813Z,5.43
2022-10-19T23:43:50.539Z,6.17
2022-10-19T23:46:18.032Z,5.70
2022-10-19T23:48:46.924Z,5.50
2022-10-19T23:51:15.660Z,5.23
2022-10-19T23:53:43.999Z,5.70
2022-10-19T23:56:13.040Z,4.93
2022-10-19T23:58:40.503Z,5.30
